Pagrindinis puslapis
METAR-TAF:

METAR-TAF

Oro uostai :

Mesotas, Tailandas

platuma: 16-40N, ilguma: 098-33E, Aukštis: 196 m

Dabartinis oras

Ataskaita buvo paskelbta 1 valandą ir 3 minutes, ne 04:00 UTC
Ramus vėjas
Temperatūra 29°C
Drėgmė 43%
Slėgis 1013 hPa
Matomumas: 3000 m
migla

METAR: VTPM 290400Z 00000KT 3000 HZ NSC 29/15 Q1013 NOSIG

Laikas: 12:03 (05:03 UTC)

Prognozė

Ataskaita buvo paskelbta 6 valandos ir 3 minutes, ne 23:00 UTC
Prognozė galioja nuo 29 metu 00 UTC su 29 metu 24 UTC
Vėjas 4 kt iš Vakarų/Pietvakarių
Matomumas: 2000 m
rūkana
Tapsmas
nuo 29 metu 01 UTC su 29 metu 03 UTC
Matomumas: 6000 m
Mažai debesys ne aukštis 2500 ft

TAF: VTPM 282300Z 2900/2924 24004KT 2000 BR NSC BECMG 2901/2903 6000 NSW FEW025

Orai ataskaitas ir orų prognozės (METAR, TAF).

turimą stotys yra geltonos ir raudonos taškus žemėlapyje.

Perkelti pele per norėdami pamatyti stoties vardą.

Tada spustelėkite, norėdami matyti oro stebėjimo ir prognozės.

Norėdami pakeisti žemėlapį: spustelėkite ant žalios mygtukų su juodo kryžiaus žemyn,; žalią mygtuką su brūkšneliu, jei norite nutolinti; arba žalių rodyklių gretimoms žemėlapius.


METAR-TAF: